Time;durP1;ratioP1;P1;durP2;ratioP2;P2;SDS_P1;SDS_P2;PMS_P1;PMS_P2;Temp;Humidity;BMP_temperature;BMP_pressure;BME280_temperature;BME280_humidity;BME280_pressure;Samples;Min_cycle;Max_cycle;Signal;HPM_P1;HPM_P2
2022/04/27 00:00:25;;;;;;;16.33;6.80;;;7.50;99.90;;;;;;4949288;28;20061;-77
2022/04/27 00:02:51;;;;;;;15.63;6.57;;;7.40;99.90;;;;;;4960635;28;20049;-76
2022/04/27 00:05:18;;;;;;;11.52;7.00;;;7.50;99.90;;;;;;4962080;28;20375;-76
2022/04/27 00:07:43;;;;;;;13.82;6.88;;;7.60;99.90;;;;;;4961232;28;20153;-75
2022/04/27 00:10:09;;;;;;;16.38;7.30;;;7.60;99.90;;;;;;4979176;28;20553;-76
2022/04/27 00:12:36;;;;;;;14.48;7.32;;;7.60;99.90;;;;;;4955945;28;20058;-74
2022/04/27 00:15:06;;;;;;;16.15;7.28;;;7.60;99.90;;;;;;4983162;28;20043;-74
2022/04/27 00:17:31;;;;;;;11.82;6.80;;;7.60;99.90;;;;;;4983427;28;20043;-75
2022/04/27 00:19:57;;;;;;;15.18;7.20;;;7.70;99.90;;;;;;4984741;28;20101;-76
2022/04/27 00:22:23;;;;;;;19.58;8.20;;;7.70;99.90;;;;;;4987888;28;20097;-76
2022/04/27 00:24:49;;;;;;;19.00;7.75;;;7.70;99.90;;;;;;4951445;28;20044;-73
2022/04/27 00:27:15;;;;;;;15.02;6.78;;;7.70;99.90;;;;;;4978773;28;20038;-77
2022/04/27 00:29:41;;;;;;;12.73;7.03;;;7.70;99.90;;;;;;4968701;28;20042;-76
2022/04/27 00:32:07;;;;;;;16.30;7.03;;;7.70;99.90;;;;;;4962151;28;20069;-76
2022/04/27 00:34:33;;;;;;;16.05;6.55;;;7.70;99.90;;;;;;4962460;28;21887;-76
2022/04/27 00:36:59;;;;;;;18.33;7.13;;;7.70;99.90;;;;;;4959174;28;20066;-78
2022/04/27 00:39:24;;;;;;;14.80;7.28;;;7.70;99.90;;;;;;4946672;28;20442;-79
2022/04/27 00:41:59;;;;;;;17.20;7.15;;;7.70;99.90;;;;;;4959899;28;20565;-77
2022/04/27 00:44:33;;;;;;;19.33;7.03;;;7.90;99.90;;;;;;4961165;28;20062;-75
2022/04/27 00:47:01;;;;;;;14.07;6.95;;;8.00;99.90;;;;;;4960469;28;20126;-76
2022/04/27 00:49:27;;;;;;;16.55;7.15;;;7.80;99.90;;;;;;4950220;28;20046;-78
2022/04/27 00:51:54;;;;;;;16.17;6.75;;;7.80;99.90;;;;;;4952627;28;20069;-76
2022/04/27 00:54:22;;;;;;;11.43;5.88;;;7.90;99.90;;;;;;4968235;28;20062;-76
2022/04/27 00:56:51;;;;;;;14.63;5.90;;;7.90;99.90;;;;;;4952227;28;20043;-75
2022/04/27 00:59:18;;;;;;;20.65;6.32;;;7.90;99.90;;;;;;4957947;28;20078;-76
2022/04/27 01:01:44;;;;;;;11.18;5.47;;;7.90;99.90;;;;;;4964711;28;20047;-77
2022/04/27 01:04:09;;;;;;;12.93;5.38;;;7.90;99.90;;;;;;4967835;28;20125;-76
2022/04/27 01:06:36;;;;;;;16.65;5.50;;;8.00;99.90;;;;;;4959202;28;21697;-78
2022/04/27 01:09:02;;;;;;;12.85;5.00;;;8.00;99.90;;;;;;4960791;28;20058;-75
2022/04/27 01:11:29;;;;;;;13.38;5.00;;;8.10;99.90;;;;;;4945375;28;20039;-76
2022/04/27 01:13:55;;;;;;;14.55;5.35;;;8.00;99.90;;;;;;4977104;28;20080;-78
2022/04/27 01:16:21;;;;;;;10.43;4.47;;;8.00;99.90;;;;;;4952190;28;20050;-78
2022/04/27 01:18:46;;;;;;;11.13;5.13;;;8.00;99.90;;;;;;4959737;28;20921;-75
2022/04/27 01:21:15;;;;;;;11.25;4.53;;;8.00;99.90;;;;;;4965814;28;20042;-76
2022/04/27 01:23:41;;;;;;;15.20;4.85;;;8.00;99.90;;;;;;4966655;28;20941;-75
2022/04/27 01:26:07;;;;;;;11.55;4.90;;;8.10;99.90;;;;;;4962108;28;20121;-75
2022/04/27 01:28:35;;;;;;;11.15;4.80;;;8.10;99.90;;;;;;4945585;28;20426;-75
2022/04/27 01:31:02;;;;;;;10.45;4.75;;;8.20;99.90;;;;;;4964094;28;20057;-76
2022/04/27 01:33:34;;;;;;;12.93;4.38;;;8.10;99.90;;;;;;4947255;28;20080;-75
2022/04/27 01:36:07;;;;;;;8.40;3.50;;;8.20;99.90;;;;;;4967274;28;20050;-75
2022/04/27 01:38:42;;;;;;;11.30;4.65;;;8.20;99.90;;;;;;4949241;28;20070;-74
2022/04/27 01:41:08;;;;;;;13.50;5.00;;;8.20;99.90;;;;;;4970820;28;20443;-74
2022/04/27 01:43:35;;;;;;;13.52;4.47;;;8.20;99.90;;;;;;4964404;28;20093;-74
2022/04/27 01:46:01;;;;;;;13.30;4.68;;;8.30;99.90;;;;;;4967774;28;20100;-74
2022/04/27 01:48:27;;;;;;;15.05;4.40;;;8.30;99.90;;;;;;4965780;28;20399;-74
2022/04/27 01:50:53;;;;;;;10.73;4.15;;;8.30;99.90;;;;;;4958577;28;20038;-75
2022/04/27 01:56:04;;;;;;;13.23;4.25;;;8.30;99.90;;;;;;4968781;28;20042;-75
2022/04/27 01:58:30;;;;;;;14.35;4.70;;;8.20;99.90;;;;;;4980640;28;20046;-77
2022/04/27 02:00:57;;;;;;;8.95;4.63;;;8.20;99.90;;;;;;4953794;28;20038;-76
2022/04/27 02:03:24;;;;;;;12.23;4.72;;;8.20;99.90;;;;;;4978962;28;20121;-77
2022/04/27 02:05:52;;;;;;;8.35;4.55;;;8.20;99.90;;;;;;4964649;28;20121;-75
2022/04/27 02:08:18;;;;;;;10.35;4.20;;;8.20;99.90;;;;;;4951348;28;20377;-75
2022/04/27 02:10:44;;;;;;;9.23;4.20;;;8.20;99.90;;;;;;4968368;28;20090;-78
2022/04/27 02:13:11;;;;;;;10.55;3.97;;;8.20;99.90;;;;;;4969395;28;20054;-77
2022/04/27 02:15:38;;;;;;;13.77;4.10;;;8.20;99.90;;;;;;4964578;28;20133;-76
2022/04/27 02:18:04;;;;;;;9.15;4.03;;;8.20;99.90;;;;;;4968526;28;20482;-77
2022/04/27 02:20:30;;;;;;;9.85;4.18;;;8.10;99.90;;;;;;4947905;28;20047;-77
2022/04/27 02:22:56;;;;;;;6.85;3.83;;;8.10;99.90;;;;;;4964768;28;20473;-76
2022/04/27 02:25:22;;;;;;;7.35;3.90;;;8.10;99.90;;;;;;4961960;28;20108;-76
2022/04/27 02:27:49;;;;;;;10.98;3.85;;;8.10;99.90;;;;;;4981619;28;20097;-77
2022/04/27 02:30:16;;;;;;;9.07;3.58;;;8.10;99.90;;;;;;4974963;28;20469;-77
2022/04/27 02:32:43;;;;;;;4.45;3.40;;;8.10;99.90;;;;;;4963848;28;20129;-76
2022/04/27 02:35:09;;;;;;;10.40;3.42;;;8.00;99.90;;;;;;4980211;28;20056;-78
2022/04/27 02:37:36;;;;;;;12.68;3.50;;;8.10;99.90;;;;;;4971378;28;20082;-77
2022/04/27 02:40:03;;;;;;;7.95;3.20;;;8.10;99.90;;;;;;4977858;28;20574;-75
2022/04/27 02:42:29;;;;;;;5.68;3.17;;;8.10;99.90;;;;;;4977480;28;20042;-78
2022/04/27 02:44:56;;;;;;;10.85;3.47;;;8.10;99.90;;;;;;4964562;28;20398;-76
2022/04/27 02:47:22;;;;;;;7.85;3.45;;;8.10;99.90;;;;;;4980149;28;20127;-76
2022/04/27 02:52:32;;;;;;;7.05;3.08;;;8.10;99.90;;;;;;4969707;28;20454;-78
2022/04/27 02:54:57;;;;;;;5.78;3.20;;;8.10;99.90;;;;;;4965067;28;20047;-75
2022/04/27 02:57:23;;;;;;;9.32;3.17;;;8.10;99.90;;;;;;4963793;28;20046;-76
2022/04/27 02:59:49;;;;;;;5.43;2.63;;;8.10;99.90;;;;;;4978042;28;20521;-78
2022/04/27 03:02:15;;;;;;;9.80;2.83;;;8.10;99.90;;;;;;4969449;28;20509;-75
2022/04/27 03:04:40;;;;;;;8.15;3.22;;;8.10;99.90;;;;;;4949624;28;20160;-74
2022/04/27 03:07:06;;;;;;;6.30;2.83;;;8.10;99.90;;;;;;4969967;28;20030;-74
2022/04/27 03:09:33;;;;;;;7.07;3.08;;;8.10;99.90;;;;;;4977830;28;20043;-76
2022/04/27 03:11:59;;;;;;;8.77;3.05;;;8.20;99.90;;;;;;4963412;28;20126;-75
2022/04/27 03:14:25;;;;;;;8.27;3.15;;;8.10;99.90;;;;;;4961180;28;20395;-78
2022/04/27 03:16:52;;;;;;;5.20;2.45;;;8.20;99.90;;;;;;4957992;28;20054;-75
2022/04/27 03:19:18;;;;;;;5.95;2.70;;;8.10;99.90;;;;;;4971754;28;20552;-76
2022/04/27 03:21:44;;;;;;;13.02;3.00;;;8.10;99.90;;;;;;4961081;28;20388;-76
2022/04/27 03:24:10;;;;;;;8.18;2.78;;;8.10;99.90;;;;;;4972109;28;20137;-75
2022/04/27 03:26:36;;;;;;;6.28;2.88;;;8.10;99.90;;;;;;4953187;28;20105;-78
2022/04/27 03:29:03;;;;;;;11.07;3.15;;;8.10;99.90;;;;;;4954689;28;20046;-73
2022/04/27 03:31:29;;;;;;;6.05;2.90;;;8.10;99.90;;;;;;4968550;28;20133;-75
2022/04/27 03:33:55;;;;;;;5.88;3.00;;;8.10;99.90;;;;;;4956947;28;20069;-74
2022/04/27 03:36:20;;;;;;;5.80;2.78;;;8.10;99.90;;;;;;4952548;28;20054;-75
2022/04/27 03:38:48;;;;;;;7.75;3.17;;;8.10;99.90;;;;;;4954886;28;20072;-75
2022/04/27 03:41:17;;;;;;;6.90;3.28;;;8.10;99.90;;;;;;4954067;28;20051;-77
2022/04/27 03:43:44;;;;;;;8.23;3.40;;;8.20;99.90;;;;;;4975100;28;20050;-75
2022/04/27 03:46:09;;;;;;;8.05;3.47;;;8.10;99.90;;;;;;4956341;28;20035;-77
2022/04/27 03:48:35;;;;;;;11.25;3.78;;;8.10;99.90;;;;;;4983101;28;20042;-77
2022/04/27 03:51:01;;;;;;;8.13;3.58;;;8.20;99.90;;;;;;4951762;28;20498;-76
2022/04/27 03:53:26;;;;;;;7.80;3.58;;;8.10;99.90;;;;;;4990720;28;20084;-78
2022/04/27 03:55:52;;;;;;;11.13;3.75;;;8.20;99.90;;;;;;4966877;28;20390;-79
2022/04/27 03:58:19;;;;;;;9.45;3.30;;;8.10;99.90;;;;;;4954788;28;20116;-79
2022/04/27 04:00:45;;;;;;;8.80;3.60;;;8.00;99.90;;;;;;4972452;28;20503;-77
2022/04/27 04:03:11;;;;;;;7.15;3.47;;;8.00;99.90;;;;;;4968863;28;20478;-79
2022/04/27 04:05:37;;;;;;;7.18;3.38;;;8.00;99.90;;;;;;4971019;28;20042;-76
2022/04/27 04:08:04;;;;;;;9.98;3.58;;;8.00;99.90;;;;;;4975547;28;20065;-77
2022/04/27 04:10:30;;;;;;;8.20;3.90;;;8.00;99.90;;;;;;4948660;28;20088;-78
2022/04/27 04:12:55;;;;;;;8.15;3.67;;;8.00;99.90;;;;;;4956887;28;20038;-75
2022/04/27 04:15:21;;;;;;;10.05;4.15;;;8.10;99.90;;;;;;4946102;28;20141;-74
2022/04/27 04:17:47;;;;;;;7.40;4.13;;;8.00;99.90;;;;;;4961612;28;20126;-76
2022/04/27 04:20:14;;;;;;;11.77;3.85;;;8.00;99.90;;;;;;4960180;28;20625;-78
2022/04/27 04:22:41;;;;;;;11.18;4.13;;;8.00;99.90;;;;;;4968522;28;20074;-76
2022/04/27 04:30:36;;;;;;;9.32;4.18;;;8.00;99.90;;;;;;4961096;28;20053;-77
2022/04/27 04:33:02;;;;;;;7.80;4.10;;;8.00;99.90;;;;;;4960812;28;20433;-76
2022/04/27 04:35:28;;;;;;;8.35;4.05;;;8.00;99.90;;;;;;4953728;28;20482;-74
2022/04/27 04:37:54;;;;;;;10.93;4.18;;;8.00;99.90;;;;;;4954041;28;20056;-76
2022/04/27 04:40:20;;;;;;;7.20;3.90;;;8.00;99.90;;;;;;4981427;28;20051;-77
2022/04/27 04:42:46;;;;;;;10.35;4.55;;;8.10;99.90;;;;;;4958874;28;20053;-79
2022/04/27 04:45:12;;;;;;;8.10;4.18;;;8.00;99.90;;;;;;4959114;28;20354;-77
2022/04/27 04:47:38;;;;;;;9.63;4.00;;;8.00;99.90;;;;;;4962413;28;20049;-78
2022/04/27 04:50:05;;;;;;;10.02;3.97;;;8.00;99.90;;;;;;4960257;28;20125;-77
2022/04/27 04:52:30;;;;;;;8.43;3.67;;;8.10;99.90;;;;;;4964201;28;20100;-75
2022/04/27 04:54:56;;;;;;;8.65;3.58;;;8.10;99.90;;;;;;4942664;28;20062;-77
2022/04/27 04:57:21;;;;;;;6.80;3.33;;;8.10;99.90;;;;;;4959894;28;20073;-75
2022/04/27 04:59:47;;;;;;;9.93;3.80;;;8.20;99.90;;;;;;4955417;28;20540;-75
2022/04/27 05:02:13;;;;;;;7.47;3.60;;;8.20;99.90;;;;;;4959574;28;20168;-76
2022/04/27 05:04:38;;;;;;;8.02;3.33;;;8.20;99.90;;;;;;4962190;28;20039;-75
2022/04/27 05:07:04;;;;;;;6.47;3.15;;;8.20;99.90;;;;;;4959235;28;20035;-75
2022/04/27 05:09:30;;;;;;;5.05;3.45;;;8.20;99.90;;;;;;4972489;28;20073;-78
2022/04/27 05:11:55;;;;;;;7.03;3.85;;;8.30;99.90;;;;;;4950382;28;20862;-78
2022/04/27 05:14:21;;;;;;;10.93;3.67;;;8.30;99.90;;;;;;4959608;28;20504;-79
2022/04/27 05:16:47;;;;;;;6.93;3.60;;;8.30;99.90;;;;;;4956069;28;20047;-79
2022/04/27 05:19:15;;;;;;;7.32;4.40;;;8.30;99.90;;;;;;4945070;28;20046;-78
2022/04/27 05:21:41;;;;;;;8.07;3.95;;;8.40;99.90;;;;;;4958342;28;20050;-78
2022/04/27 05:24:07;;;;;;;8.48;4.20;;;8.40;99.90;;;;;;4956567;28;20035;-76
2022/04/27 05:26:32;;;;;;;11.15;4.10;;;8.40;99.90;;;;;;4961401;28;20039;-77
2022/04/27 05:31:54;;;;;;;7.18;3.85;;;8.40;99.90;;;;;;4966199;28;20464;-75
2022/04/27 05:34:21;;;;;;;7.07;4.03;;;8.60;99.90;;;;;;4964795;28;20039;-79
2022/04/27 05:36:47;;;;;;;8.88;4.13;;;8.50;99.90;;;;;;4957270;28;20145;-76
2022/04/27 05:39:13;;;;;;;7.88;3.88;;;8.50;99.90;;;;;;4966004;28;20129;-78
2022/04/27 05:41:38;;;;;;;7.88;4.15;;;8.50;99.90;;;;;;4956692;28;20039;-77
2022/04/27 05:44:09;;;;;;;8.50;3.50;;;8.60;99.90;;;;;;4958043;28;20043;-74
2022/04/27 05:46:42;;;;;;;7.77;4.27;;;8.70;99.90;;;;;;4951245;28;20038;-78
2022/04/27 05:49:08;;;;;;;11.23;4.55;;;8.80;99.90;;;;;;4950411;28;20142;-78
2022/04/27 05:51:35;;;;;;;9.05;4.10;;;8.70;99.90;;;;;;4961228;28;20115;-79
2022/04/27 05:54:01;;;;;;;8.52;3.85;;;8.80;99.90;;;;;;4963170;28;20480;-78
2022/04/27 05:56:27;;;;;;;10.98;3.13;;;8.70;99.90;;;;;;4977660;28;20042;-78
2022/04/27 05:58:53;;;;;;;5.40;2.35;;;8.80;99.90;;;;;;4952279;28;20092;-78
2022/04/27 06:01:19;;;;;;;8.82;3.10;;;8.80;99.90;;;;;;4966464;28;20047;-77
2022/04/27 06:03:45;;;;;;;9.02;2.78;;;8.80;99.90;;;;;;4948804;28;20058;-78
2022/04/27 06:06:11;;;;;;;5.03;2.92;;;8.80;99.90;;;;;;4958425;28;20057;-79
2022/04/27 06:08:37;;;;;;;9.00;3.42;;;9.00;99.90;;;;;;4952948;28;20697;-78
2022/04/27 06:11:02;;;;;;;7.50;3.10;;;8.80;99.90;;;;;;4965390;28;20092;-79
2022/04/27 06:13:29;;;;;;;6.72;3.63;;;8.90;99.90;;;;;;4952368;28;20058;-78
2022/04/27 06:15:54;;;;;;;5.90;2.88;;;8.90;99.90;;;;;;4961504;28;20073;-78
2022/04/27 06:18:20;;;;;;;6.60;2.00;;;8.90;99.90;;;;;;4944655;28;20050;-79
2022/04/27 06:20:46;;;;;;;6.95;1.45;;;8.90;99.90;;;;;;4959004;28;20101;-79
2022/04/27 06:23:13;;;;;;;8.60;1.63;;;9.00;99.90;;;;;;4951457;28;20050;-79
2022/04/27 06:25:40;;;;;;;11.85;1.95;;;9.00;99.90;;;;;;4964881;28;20068;-78
2022/04/27 06:28:07;;;;;;;4.72;1.90;;;9.10;99.90;;;;;;4947894;28;20100;-78
2022/04/27 06:30:35;;;;;;;6.97;2.15;;;9.10;99.90;;;;;;4948954;28;20109;-77
2022/04/27 06:33:01;;;;;;;6.63;2.50;;;9.20;99.90;;;;;;4944704;28;20069;-78
2022/04/27 06:35:27;;;;;;;7.82;2.50;;;9.20;99.90;;;;;;4923605;28;20129;-77
2022/04/27 06:37:53;;;;;;;4.38;2.30;;;9.30;99.90;;;;;;4966763;28;20547;-79
2022/04/27 06:40:18;;;;;;;8.35;2.50;;;9.30;99.90;;;;;;4965146;28;20039;-79
2022/04/27 06:42:45;;;;;;;7.47;2.70;;;9.40;99.90;;;;;;4966939;28;20051;-77
2022/04/27 06:45:11;;;;;;;5.97;2.78;;;9.40;99.90;;;;;;4967067;28;20103;-77
2022/04/27 06:47:37;;;;;;;9.45;2.50;;;9.60;99.90;;;;;;4956553;28;20070;-77
2022/04/27 06:50:03;;;;;;;5.28;2.30;;;9.60;99.90;;;;;;4952142;28;20080;-76
2022/04/27 06:52:29;;;;;;;5.65;2.20;;;9.70;99.90;;;;;;4954975;28;20106;-77
2022/04/27 06:54:54;;;;;;;6.85;2.15;;;9.70;99.90;;;;;;4971075;28;20558;-78
2022/04/27 06:57:21;;;;;;;3.25;2.00;;;9.70;99.90;;;;;;4965671;28;20050;-78
2022/04/27 06:59:47;;;;;;;8.65;2.35;;;9.80;99.90;;;;;;4964704;28;20152;-76
2022/04/27 07:02:15;;;;;;;6.78;2.38;;;9.80;99.90;;;;;;4964852;28;20058;-76
2022/04/27 07:04:43;;;;;;;3.78;2.03;;;9.90;99.90;;;;;;4969612;28;20430;-77
2022/04/27 07:07:09;;;;;;;6.80;2.00;;;9.90;99.90;;;;;;4979795;28;20091;-80
2022/04/27 07:09:35;;;;;;;4.43;1.88;;;10.00;99.90;;;;;;4977191;28;20514;-78
2022/04/27 07:12:01;;;;;;;6.10;2.00;;;10.10;99.90;;;;;;4979835;28;20049;-77
2022/04/27 07:14:27;;;;;;;5.40;1.60;;;10.10;99.90;;;;;;4985727;28;20047;-78
2022/04/27 07:16:52;;;;;;;4.95;1.70;;;9.90;99.90;;;;;;4958536;28;20035;-76
2022/04/27 07:19:18;;;;;;;8.65;2.28;;;10.00;99.90;;;;;;4974937;28;20046;-79
2022/04/27 07:21:43;;;;;;;12.88;2.20;;;9.90;99.90;;;;;;4957714;28;20545;-78
2022/04/27 07:24:09;;;;;;;7.15;2.42;;;9.90;99.90;;;;;;4976519;28;20052;-76
2022/04/27 07:26:35;;;;;;;5.05;1.70;;;10.00;99.90;;;;;;4976394;28;20402;-78
2022/04/27 07:29:00;;;;;;;6.80;1.90;;;10.10;99.90;;;;;;4975281;28;20197;-77
2022/04/27 07:35:08;;;;;;;6.68;1.80;;;10.30;99.90;;;;;;4994894;28;20130;-79
2022/04/27 07:37:38;;;;;;;8.10;1.73;;;10.30;99.90;;;;;;4976525;28;20524;-85
2022/04/27 07:40:08;;;;;;;6.72;2.00;;;10.30;99.90;;;;;;4988381;28;20034;-82
2022/04/27 07:42:34;;;;;;;5.25;1.63;;;10.30;99.90;;;;;;4969825;28;20446;-77
2022/04/27 07:44:59;;;;;;;6.10;1.75;;;10.60;99.90;;;;;;4972847;28;20355;-77
2022/04/27 07:47:25;;;;;;;5.35;1.80;;;10.40;99.90;;;;;;4975607;28;20738;-78
2022/04/27 07:49:50;;;;;;;6.20;1.92;;;10.30;99.90;;;;;;4973369;28;20362;-78
2022/04/27 07:52:16;;;;;;;4.75;1.75;;;10.70;99.90;;;;;;4944785;28;20038;-77
2022/04/27 07:54:45;;;;;;;7.95;2.20;;;10.40;99.90;;;;;;4957667;28;20081;-77
2022/04/27 07:57:10;;;;;;;6.80;1.67;;;10.40;99.90;;;;;;4952798;28;20088;-76
2022/04/27 07:59:36;;;;;;;6.43;1.80;;;10.40;99.90;;;;;;4952661;28;20073;-78
2022/04/27 08:02:02;;;;;;;6.97;1.80;;;10.30;99.90;;;;;;4972316;28;20043;-77
2022/04/27 08:04:28;;;;;;;7.80;1.73;;;10.30;99.90;;;;;;4956521;28;20836;-78
2022/04/27 08:06:53;;;;;;;6.78;1.70;;;10.30;99.90;;;;;;4967825;28;20053;-80
2022/04/27 08:09:19;;;;;;;7.70;2.33;;;10.20;99.90;;;;;;4968244;28;20498;-72
2022/04/27 08:11:45;;;;;;;6.32;2.03;;;10.10;99.90;;;;;;4949355;28;20046;-76
2022/04/27 08:14:10;;;;;;;9.45;2.58;;;10.20;99.90;;;;;;4954144;28;20054;-74
2022/04/27 08:16:36;;;;;;;6.43;2.70;;;10.10;99.90;;;;;;4972818;28;20530;-75
2022/04/27 08:19:02;;;;;;;9.57;2.10;;;10.00;99.90;;;;;;4948270;28;20059;-78
2022/04/27 08:21:27;;;;;;;10.15;2.40;;;10.00;99.90;;;;;;4962382;28;20051;-77
2022/04/27 08:23:53;;;;;;;13.43;2.95;;;10.00;99.90;;;;;;4978100;28;20668;-77
2022/04/27 08:26:19;;;;;;;15.65;2.97;;;10.10;99.90;;;;;;4964836;28;20137;-76
2022/04/27 08:28:45;;;;;;;11.30;2.40;;;10.10;99.90;;;;;;4963410;28;20045;-74
2022/04/27 08:31:14;;;;;;;9.18;1.65;;;10.10;99.90;;;;;;4961742;28;20049;-78
2022/04/27 08:33:40;;;;;;;13.82;2.28;;;10.10;99.90;;;;;;4964425;28;20045;-74
2022/04/27 08:36:06;;;;;;;15.18;3.03;;;10.10;99.90;;;;;;4945792;28;20058;-75
2022/04/27 08:38:34;;;;;;;10.95;2.63;;;10.20;99.90;;;;;;4959850;28;20462;-76
2022/04/27 08:41:00;;;;;;;17.33;2.65;;;10.20;99.90;;;;;;4950820;28;20047;-75
2022/04/27 08:43:26;;;;;;;14.48;2.38;;;10.30;99.90;;;;;;4959417;28;20057;-77
2022/04/27 08:45:52;;;;;;;10.55;2.53;;;10.40;99.90;;;;;;4962118;28;20046;-76
2022/04/27 08:48:18;;;;;;;13.27;2.58;;;10.50;99.90;;;;;;4960692;28;20788;-77
2022/04/27 08:50:45;;;;;;;18.25;2.80;;;10.60;99.90;;;;;;4969625;28;20035;-78
2022/04/27 08:53:11;;;;;;;13.85;2.33;;;10.60;99.90;;;;;;4960170;28;20069;-75
2022/04/27 08:55:39;;;;;;;15.60;2.63;;;10.70;99.90;;;;;;4973828;28;20046;-74
2022/04/27 08:58:16;;;;;;;16.77;2.90;;;10.80;99.90;;;;;;4966156;28;20554;-74
2022/04/27 09:00:45;;;;;;;14.32;2.90;;;10.80;99.90;;;;;;4963240;28;20478;-75
2022/04/27 09:03:30;;;;;;;16.25;2.75;;;10.80;99.90;;;;;;4970756;28;20441;-74
2022/04/27 09:06:00;;;;;;;;;;;10.80;99.90;;;;;;4947608;28;20042;-74
2022/04/27 09:08:43;;;;;;;13.23;2.58;;;10.80;99.90;;;;;;4962427;28;19925;-74
2022/04/27 09:11:18;;;;;;;17.20;3.10;;;10.80;99.90;;;;;;4965051;28;20681;-76
2022/04/27 09:13:55;;;;;;;13.77;2.60;;;10.80;99.90;;;;;;4951562;28;20042;-75
2022/04/27 09:16:23;;;;;;;13.65;2.85;;;10.80;99.90;;;;;;4947623;28;20045;-75
2022/04/27 09:21:55;;;;;;;13.18;2.63;;;10.70;99.90;;;;;;4964859;28;20449;-75
2022/04/27 09:24:21;;;;;;;11.55;2.90;;;10.70;99.90;;;;;;4976912;28;20049;-76
2022/04/27 09:27:02;;;;;;;17.25;4.22;;;10.60;99.90;;;;;;4977500;28;20145;-76
2022/04/27 09:29:28;;;;;;;9.70;2.60;;;10.60;99.90;;;;;;4966072;28;20036;-74
2022/04/27 09:32:00;;;;;;;14.73;3.63;;;10.60;99.90;;;;;;4950357;28;20043;-75
2022/04/27 09:34:29;;;;;;;18.23;3.08;;;10.50;99.90;;;;;;4963856;28;20046;-74
2022/04/27 09:36:59;;;;;;;17.98;3.35;;;10.50;99.90;;;;;;4941133;28;20154;-77
2022/04/27 09:39:25;;;;;;;15.25;3.05;;;10.40;99.90;;;;;;4949067;28;20050;-77
2022/04/27 09:41:51;;;;;;;15.63;2.97;;;10.30;99.90;;;;;;4965221;28;20039;-77
2022/04/27 09:44:28;;;;;;;16.52;3.08;;;10.40;99.90;;;;;;4952437;28;20466;-75
2022/04/27 09:46:54;;;;;;;16.48;3.60;;;10.30;99.90;;;;;;4949017;28;20440;-76
2022/04/27 09:49:20;;;;;;;18.92;3.30;;;10.30;99.90;;;;;;4881498;28;20074;-75
2022/04/27 09:51:51;;;;;;;17.25;3.33;;;10.30;99.90;;;;;;4980762;28;20077;-76
2022/04/27 09:54:30;;;;;;;17.33;3.30;;;10.40;99.90;;;;;;4968051;28;20374;-76
2022/04/27 09:57:01;;;;;;;12.15;3.30;;;10.40;99.90;;;;;;4982621;28;20077;-77
2022/04/27 09:59:31;;;;;;;16.42;3.10;;;10.50;99.90;;;;;;4986124;28;20050;-76
2022/04/27 10:01:59;;;;;;;20.08;3.38;;;10.40;99.90;;;;;;4966176;28;20054;-74
2022/04/27 10:04:29;;;;;;;16.00;2.83;;;10.30;99.90;;;;;;4996125;28;20610;-77
2022/04/27 10:07:01;;;;;;;13.93;2.97;;;10.20;99.90;;;;;;4972747;28;20030;-83
2022/04/27 10:09:29;;;;;;;8.40;2.45;;;10.30;99.90;;;;;;4966674;28;20034;-82
2022/04/27 10:11:56;;;;;;;11.32;2.92;;;10.30;99.90;;;;;;4970088;28;20078;-75
2022/04/27 10:14:22;;;;;;;16.55;3.05;;;10.30;99.90;;;;;;4974007;28;20038;-76
2022/04/27 10:16:49;;;;;;;24.20;3.70;;;10.30;99.90;;;;;;4995150;28;20480;-76
2022/04/27 10:19:16;;;;;;;18.20;3.03;;;10.20;99.90;;;;;;4971028;28;20448;-75
2022/04/27 10:21:58;;;;;;;16.95;2.97;;;10.50;99.90;;;;;;4992903;28;20042;-75
2022/04/27 10:24:41;;;;;;;20.60;3.42;;;10.20;99.90;;;;;;4984111;28;20137;-75
2022/04/27 10:27:15;;;;;;;17.75;3.88;;;10.20;99.90;;;;;;4986878;28;20044;-75
2022/04/27 10:29:44;;;;;;;15.18;3.10;;;10.20;99.90;;;;;;4985083;28;20128;-76
2022/04/27 10:32:10;;;;;;;13.15;3.13;;;10.30;99.90;;;;;;4990286;28;20385;-78
2022/04/27 10:34:36;;;;;;;14.45;3.22;;;10.30;99.90;;;;;;4989455;28;20038;-80
2022/04/27 10:37:03;;;;;;;12.70;2.83;;;10.30;99.90;;;;;;4961984;28;20148;-76
2022/04/27 10:39:35;;;;;;;17.95;3.20;;;10.30;99.90;;;;;;4985274;28;20041;-78
2022/04/27 10:42:04;;;;;;;12.80;2.75;;;10.30;99.90;;;;;;4983042;28;20053;-76
2022/04/27 10:44:50;;;;;;;13.20;2.67;;;10.30;99.90;;;;;;4972391;28;20069;-74
2022/04/27 10:47:20;;;;;;;17.85;3.28;;;10.30;99.90;;;;;;4972268;28;20033;-75
2022/04/27 10:50:09;;;;;;;13.07;2.70;;;10.80;99.90;;;;;;4984606;28;20053;-76
2022/04/27 10:52:51;;;;;;;22.27;3.00;;;10.70;99.90;;;;;;4969945;28;20041;-76
2022/04/27 10:55:45;;;;;;;12.43;2.92;;;10.70;99.90;;;;;;4985429;28;20137;-75
2022/04/27 10:58:23;;;;;;;16.05;2.92;;;10.60;99.90;;;;;;4999973;28;20041;-75
2022/04/27 11:00:58;;;;;;;13.32;3.05;;;10.70;99.90;;;;;;4966663;28;20058;-75
2022/04/27 11:03:25;;;;;;;17.25;2.50;;;10.80;99.90;;;;;;4972837;28;20050;-77
2022/04/27 11:05:52;;;;;;;19.63;3.20;;;10.90;99.90;;;;;;4986011;28;20493;-76
2022/04/27 11:08:45;;;;;;;12.68;2.55;;;10.90;99.90;;;;;;4985063;28;20141;-78
2022/04/27 11:11:11;;;;;;;8.85;2.45;;;10.80;99.90;;;;;;4969834;28;20061;-76
2022/04/27 11:13:37;;;;;;;13.77;2.85;;;10.90;99.90;;;;;;4985162;28;20042;-75
2022/04/27 11:16:11;;;;;;;14.30;3.00;;;11.00;99.90;;;;;;4986122;28;20106;-75
2022/04/27 11:18:55;;;;;;;18.08;2.70;;;11.20;99.90;;;;;;5000910;28;20029;-76
2022/04/27 11:21:26;;;;;;;12.10;2.87;;;11.20;99.90;;;;;;4990232;28;20776;-76
2022/04/27 11:23:53;;;;;;;12.90;2.40;;;11.30;99.90;;;;;;4985889;28;20046;-78
2022/04/27 11:26:26;;;;;;;14.52;2.90;;;11.50;99.90;;;;;;4987312;28;20041;-79
2022/04/27 11:28:53;;;;;;;12.43;2.90;;;11.50;99.90;;;;;;4968894;28;20149;-77
2022/04/27 11:31:19;;;;;;;11.80;2.78;;;11.40;99.90;;;;;;4986248;28;20046;-80
2022/04/27 11:33:45;;;;;;;12.20;2.70;;;11.60;99.90;;;;;;4990636;28;20060;-77
2022/04/27 11:36:26;;;;;;;12.52;2.63;;;11.40;99.90;;;;;;4987408;28;20046;-76
2022/04/27 11:38:54;;;;;;;13.20;2.80;;;11.60;99.90;;;;;;4998158;28;20037;-79
2022/04/27 11:41:23;;;;;;;13.07;2.67;;;11.60;99.90;;;;;;4975099;28;20046;-77
2022/04/27 11:43:50;;;;;;;14.55;3.05;;;11.50;99.90;;;;;;4978642;28;20046;-76
2022/04/27 11:46:17;;;;;;;15.75;2.97;;;11.60;99.90;;;;;;4992619;28;20042;-75
2022/04/27 11:48:53;;;;;;;20.40;2.72;;;11.80;99.90;;;;;;4977001;28;20129;-75
2022/04/27 11:51:19;;;;;;;15.30;2.67;;;11.70;99.90;;;;;;4988749;28;20477;-78
2022/04/27 11:53:49;;;;;;;15.70;2.50;;;11.90;99.90;;;;;;4988744;28;20057;-77
2022/04/27 11:56:15;;;;;;;13.50;2.72;;;12.10;99.90;;;;;;4989603;28;20156;-78
2022/04/27 11:58:45;;;;;;;11.55;2.72;;;12.00;99.90;;;;;;4987526;28;20105;-77
2022/04/27 12:01:19;;;;;;;11.10;3.03;;;12.20;99.90;;;;;;4985795;28;20045;-80
2022/04/27 12:03:44;;;;;;;12.45;2.33;;;12.50;99.90;;;;;;4971339;28;20072;-77
2022/04/27 12:06:18;;;;;;;10.10;2.00;;;12.80;99.90;;;;;;4969691;28;20050;-77
2022/04/27 12:08:43;;;;;;;8.85;2.50;;;13.00;99.90;;;;;;4970576;28;20049;-79
2022/04/27 12:11:09;;;;;;;13.70;2.55;;;13.10;99.90;;;;;;4980735;28;20366;-78
2022/04/27 12:13:35;;;;;;;12.25;2.40;;;13.30;99.90;;;;;;4971904;28;20148;-78
2022/04/27 12:16:01;;;;;;;11.00;2.35;;;13.20;99.90;;;;;;4996817;28;20073;-77
2022/04/27 12:18:31;;;;;;;14.98;2.55;;;13.20;99.90;;;;;;4996781;28;20083;-78
2022/04/27 12:20:58;;;;;;;14.13;2.88;;;13.30;99.90;;;;;;4987792;28;20050;-76
2022/04/27 12:23:29;;;;;;;10.00;2.55;;;13.30;99.90;;;;;;4983205;28;20101;-77
2022/04/27 12:25:59;;;;;;;8.80;2.25;;;13.40;99.90;;;;;;4970993;28;20569;-76
2022/04/27 12:28:49;;;;;;;11.80;2.65;;;13.40;99.90;;;;;;4977005;28;20497;-78
2022/04/27 12:31:17;;;;;;;15.38;2.50;;;13.50;99.90;;;;;;4973502;28;20049;-77
2022/04/27 12:33:50;;;;;;;12.07;2.75;;;13.40;99.90;;;;;;4975613;28;20046;-77
2022/04/27 12:39:20;;;;;;;12.45;2.42;;;13.50;99.90;;;;;;4974140;28;20061;-76
2022/04/27 12:41:48;;;;;;;8.65;2.20;;;13.60;99.90;;;;;;4974428;28;20046;-77
2022/04/27 12:44:28;;;;;;;12.18;2.67;;;13.70;99.90;;;;;;4966288;28;20128;-76
2022/04/27 12:47:07;;;;;;;11.77;2.90;;;13.90;99.90;;;;;;4974792;28;20125;-78
2022/04/27 12:49:34;;;;;;;13.55;2.38;;;13.90;99.90;;;;;;4974034;28;20111;-75
2022/04/27 12:52:15;;;;;;;16.35;2.60;;;13.80;99.90;;;;;;4964596;28;20133;-76
2022/04/27 12:54:41;;;;;;;10.48;3.05;;;13.80;99.90;;;;;;4999544;28;20048;-76
2022/04/27 12:57:07;;;;;;;11.88;2.60;;;13.80;99.90;;;;;;5012100;28;20045;-76
2022/04/27 12:59:52;;;;;;;11.65;2.83;;;13.50;99.90;;;;;;4990476;28;20060;-78
2022/04/27 13:02:18;;;;;;;20.70;3.08;;;13.30;99.90;;;;;;4976107;28;20053;-77
2022/04/27 13:04:46;;;;;;;9.63;2.28;;;13.30;99.90;;;;;;4978312;28;20049;-76
2022/04/27 13:07:15;;;;;;;12.32;2.30;;;13.30;99.90;;;;;;4994097;28;20134;-75
2022/04/27 13:12:32;;;;;;;10.38;2.72;;;13.10;99.90;;;;;;4994695;28;20046;-76
2022/04/27 13:14:59;;;;;;;13.35;2.88;;;12.80;99.90;;;;;;4993731;28;20037;-76
2022/04/27 13:17:24;;;;;;;13.35;2.65;;;12.90;99.90;;;;;;4990162;28;20045;-76